Time;durP1;ratioP1;P1;durP2;ratioP2;P2;SDS_P1;SDS_P2;PMS_P1;PMS_P2;Temp;Humidity;BMP_temperature;BMP_pressure;BME280_temperature;BME280_humidity;BME280_pressure;Samples;Min_cycle;Max_cycle;Signal;HPM_P1;HPM_P2
2022/02/11 00:00:53;;;;;;;13.13;3.45;;;3.40;99.90;;;;;;5041861;28;20044;-88
2022/02/11 00:08:32;;;;;;;16.00;4.25;;;3.30;99.90;;;;;;5048711;28;20032;-86
2022/02/11 00:10:58;;;;;;;15.48;3.75;;;3.30;99.90;;;;;;5027662;28;20439;-86
2022/02/11 00:13:24;;;;;;;16.02;3.90;;;3.30;99.90;;;;;;5021364;28;20446;-90
2022/02/11 00:15:53;;;;;;;25.17;5.03;;;3.20;99.90;;;;;;5026026;28;20036;-87
2022/02/11 00:18:20;;;;;;;10.90;3.17;;;3.30;99.90;;;;;;5007776;28;20041;-88
2022/02/11 00:20:48;;;;;;;16.45;4.28;;;3.50;99.90;;;;;;5043462;28;20411;-89
2022/02/11 00:23:16;;;;;;;13.68;3.58;;;3.50;99.90;;;;;;5043797;28;20040;-87
2022/02/11 00:25:47;;;;;;;12.32;3.10;;;3.50;99.90;;;;;;5044931;28;20036;-88
2022/02/11 00:31:30;;;;;;;12.50;3.47;;;3.60;99.90;;;;;;5043460;28;20060;-88
2022/02/11 00:33:32;;;;;;;11.30;3.53;;;3.70;99.90;;;;;;5065147;28;20113;-89
2022/02/11 00:36:06;;;;;;;19.60;4.10;;;3.70;99.90;;;;;;5019791;28;20211;-87
2022/02/11 01:04:26;;;;;;;12.55;3.10;;;3.90;99.90;;;;;;5038658;28;20522;-87
2022/02/11 01:06:52;;;;;;;18.20;3.22;;;3.90;99.90;;;;;;5053205;28;20052;-87
2022/02/11 01:09:17;;;;;;;11.70;3.30;;;3.90;99.90;;;;;;5041332;28;20037;-87
2022/02/11 01:11:49;;;;;;;15.07;3.58;;;3.90;99.90;;;;;;5028989;28;20035;-87
2022/02/11 01:14:18;;;;;;;11.93;3.08;;;3.90;99.90;;;;;;5044255;28;20817;-87
2022/02/11 01:16:49;;;;;;;12.52;3.25;;;3.90;99.90;;;;;;5026328;28;20040;-86
2022/02/11 01:21:55;;;;;;;8.95;2.75;;;3.80;99.90;;;;;;5044535;28;20041;-88
2022/02/11 01:34:59;;;;;;;20.30;3.60;;;3.80;99.90;;;;;;5028999;28;20499;-88
2022/02/11 01:37:36;;;;;;;12.32;2.70;;;3.80;99.90;;;;;;5041009;28;20506;-88
2022/02/11 01:51:13;;;;;;;13.48;3.30;;;3.60;99.90;;;;;;5045832;28;20053;-87
2022/02/11 01:56:38;;;;;;;12.43;2.70;;;3.60;99.90;;;;;;5050891;28;20036;-88
2022/02/11 02:02:23;;;;;;;20.42;3.00;;;3.60;99.90;;;;;;5046141;28;20040;-88
2022/02/11 02:50:10;;;;;;;16.15;3.13;;;3.80;99.90;;;;;;5047229;28;20040;-88
2022/02/11 03:00:18;;;;;;;18.25;3.33;;;3.90;99.90;;;;;;5059053;28;20048;-88
2022/02/11 03:17:32;;;;;;;25.15;3.25;;;4.00;99.90;;;;;;5035936;28;20048;-89
2022/02/11 03:49:30;;;;;;;26.92;2.85;;;4.40;99.90;;;;;;5027436;28;20044;-90
2022/02/11 03:58:06;;;;;;;24.55;2.63;;;4.50;99.90;;;;;;4998237;28;21220;-89
2022/02/11 04:53:46;;;;;;;19.90;2.60;;;4.80;99.90;;;;;;5030668;28;20384;-87
2022/02/11 04:55:48;;;;;;;16.98;2.35;;;4.80;99.90;;;;;;5048944;28;20124;-89
2022/02/11 05:00:59;;;;;;;16.92;1.88;;;4.70;99.90;;;;;;5045665;28;20137;-87
2022/02/11 05:03:24;;;;;;;9.57;1.30;;;4.70;99.90;;;;;;5043192;28;20155;-87
2022/02/11 05:05:50;;;;;;;16.15;2.47;;;4.70;99.90;;;;;;5025345;28;20078;-87
2022/02/11 05:08:21;;;;;;;16.90;1.92;;;4.70;99.90;;;;;;5023237;28;20550;-87
2022/02/11 05:10:48;;;;;;;18.27;1.92;;;4.70;99.90;;;;;;5060123;28;20040;-88
2022/02/11 05:13:15;;;;;;;14.80;1.75;;;4.60;99.90;;;;;;5038145;28;20032;-88
2022/02/11 05:15:41;;;;;;;13.82;2.00;;;4.70;99.90;;;;;;5026966;28;20037;-88
2022/02/11 05:18:08;;;;;;;12.70;2.10;;;4.70;99.90;;;;;;5055989;28;20083;-91
2022/02/11 05:20:37;;;;;;;15.52;1.92;;;4.60;99.90;;;;;;5058864;28;20508;-87
2022/02/11 05:23:07;;;;;;;12.20;1.98;;;4.60;99.90;;;;;;5028977;28;20071;-86
2022/02/11 05:25:39;;;;;;;17.95;2.67;;;4.60;99.90;;;;;;5037024;28;20105;-88
2022/02/11 05:28:06;;;;;;;;;;;4.70;99.90;;;;;;5061033;28;20041;-89
2022/02/11 05:30:33;;;;;;;23.13;2.17;;;4.60;99.90;;;;;;5046075;28;19924;-87
2022/02/11 05:33:03;;;;;;;17.13;2.05;;;4.60;99.90;;;;;;5037130;28;20064;-90
2022/02/11 05:35:29;;;;;;;12.02;2.13;;;4.60;99.90;;;;;;5027617;28;20044;-88
2022/02/11 05:37:55;;;;;;;9.88;1.73;;;4.60;99.90;;;;;;5020653;28;20044;-89
2022/02/11 05:40:21;;;;;;;13.18;1.35;;;4.60;99.90;;;;;;5029627;28;20393;-88
2022/02/11 05:42:46;;;;;;;19.02;1.77;;;4.60;99.90;;;;;;5029394;28;20271;-89
2022/02/11 05:45:12;;;;;;;16.80;1.98;;;4.60;99.90;;;;;;5023962;28;20044;-87
2022/02/11 05:47:38;;;;;;;16.90;2.17;;;4.50;99.90;;;;;;5024086;28;20488;-88
2022/02/11 05:50:04;;;;;;;19.48;1.92;;;4.50;99.90;;;;;;5026408;28;20028;-87
2022/02/11 05:52:31;;;;;;;16.88;2.30;;;4.50;99.90;;;;;;5031889;28;20076;-88
2022/02/11 05:54:57;;;;;;;14.48;2.50;;;4.50;99.90;;;;;;5026624;28;20579;-89
2022/02/11 05:57:23;;;;;;;22.08;2.65;;;4.40;99.90;;;;;;5049983;28;20537;-88
2022/02/11 05:59:49;;;;;;;13.05;1.90;;;4.50;99.90;;;;;;5014011;28;20358;-87
2022/02/11 06:02:16;;;;;;;25.05;2.42;;;4.40;99.90;;;;;;5046524;28;20048;-90
2022/02/11 06:04:41;;;;;;;29.88;3.40;;;4.40;99.90;;;;;;5030496;28;20121;-88
2022/02/11 06:07:07;;;;;;;22.58;2.47;;;4.40;99.90;;;;;;5034848;28;20033;-87
2022/02/11 06:09:33;;;;;;;22.35;3.22;;;4.40;99.90;;;;;;5026773;28;20684;-87
2022/02/11 06:11:59;;;;;;;34.20;3.80;;;4.40;99.90;;;;;;5042149;28;20045;-88
2022/02/11 06:14:24;;;;;;;22.25;2.90;;;4.40;99.90;;;;;;5007874;28;20076;-89
2022/02/11 06:16:50;;;;;;;30.33;3.70;;;4.40;99.90;;;;;;5017819;28;20043;-89
2022/02/11 06:19:16;;;;;;;24.50;2.90;;;4.40;99.90;;;;;;5023333;28;20167;-88
2022/02/11 06:21:45;;;;;;;25.98;3.05;;;4.40;99.90;;;;;;5031099;28;20513;-89
2022/02/11 06:24:11;;;;;;;27.27;2.42;;;4.40;99.90;;;;;;5028820;28;20534;-87
2022/02/11 06:26:36;;;;;;;22.33;3.03;;;4.40;99.90;;;;;;5045998;28;20063;-87
2022/02/11 06:29:05;;;;;;;23.38;2.90;;;4.40;99.90;;;;;;5038284;28;20492;-89
2022/02/11 06:31:31;;;;;;;15.68;2.58;;;4.40;99.90;;;;;;5052525;28;20044;-87
2022/02/11 06:33:57;;;;;;;24.10;2.78;;;4.50;99.90;;;;;;5037218;28;20538;-88
2022/02/11 06:36:23;;;;;;;11.70;2.40;;;4.50;99.90;;;;;;5036503;28;20032;-89
2022/02/11 06:38:53;;;;;;;21.40;2.97;;;4.50;99.90;;;;;;5044509;28;20051;-89
2022/02/11 06:41:19;;;;;;;20.58;3.13;;;4.50;99.90;;;;;;5044721;28;20052;-87
2022/02/11 06:43:45;;;;;;;21.58;3.40;;;4.50;99.90;;;;;;5019266;28;20516;-88
2022/02/11 06:46:11;;;;;;;25.05;3.08;;;4.50;99.90;;;;;;5021600;28;20131;-87
2022/02/11 06:48:36;;;;;;;20.55;2.75;;;4.50;99.90;;;;;;5025173;28;20094;-87
2022/02/11 06:51:02;;;;;;;18.65;2.70;;;4.50;99.90;;;;;;5021636;28;20045;-88
2022/02/11 06:53:28;;;;;;;25.45;2.83;;;4.50;99.90;;;;;;5036239;28;20075;-87
2022/02/11 06:55:54;;;;;;;14.27;2.25;;;4.50;99.90;;;;;;5026478;28;20043;-88
2022/02/11 06:58:26;;;;;;;18.20;2.53;;;4.50;99.90;;;;;;5024049;28;20499;-89
2022/02/11 07:00:52;;;;;;;22.60;2.97;;;4.50;99.90;;;;;;5037381;28;20047;-88
2022/02/11 07:03:23;;;;;;;19.48;2.38;;;4.40;99.90;;;;;;5026905;28;20032;-91
2022/02/11 07:05:51;;;;;;;15.85;2.30;;;4.40;99.90;;;;;;5042939;28;20037;-88
2022/02/11 07:08:18;;;;;;;18.80;2.30;;;4.40;99.90;;;;;;5024446;28;20496;-89
2022/02/11 07:10:44;;;;;;;24.02;3.03;;;4.40;99.90;;;;;;5056691;28;20040;-87
2022/02/11 07:13:16;;;;;;;26.30;3.38;;;4.40;99.90;;;;;;5039465;28;20093;-89
2022/02/11 07:15:44;;;;;;;15.80;1.85;;;4.40;99.90;;;;;;5055087;28;20033;-89
2022/02/11 07:18:11;;;;;;;27.02;3.25;;;4.40;99.90;;;;;;5020275;28;20044;-88
2022/02/11 07:20:37;;;;;;;16.17;2.58;;;4.40;99.90;;;;;;5042868;28;20507;-86
2022/02/11 07:23:03;;;;;;;17.42;2.15;;;4.40;99.90;;;;;;5023935;28;20349;-86
2022/02/11 07:25:29;;;;;;;22.08;2.38;;;4.40;99.90;;;;;;5039241;28;20036;-87
2022/02/11 07:27:55;;;;;;;18.25;2.55;;;4.40;99.90;;;;;;5021873;28;20044;-89
2022/02/11 07:30:21;;;;;;;17.60;2.15;;;4.40;99.90;;;;;;5054499;28;20436;-88
2022/02/11 07:32:48;;;;;;;20.35;2.42;;;4.40;99.90;;;;;;5044814;28;20510;-88
2022/02/11 07:35:14;;;;;;;14.50;2.20;;;4.40;99.90;;;;;;5011722;28;20048;-91
2022/02/11 07:37:40;;;;;;;23.13;2.88;;;4.40;99.90;;;;;;5034224;28;20130;-89
2022/02/11 07:40:07;;;;;;;15.82;2.30;;;4.40;99.90;;;;;;5038297;28;20037;-89
2022/02/11 07:42:34;;;;;;;14.88;2.25;;;4.40;99.90;;;;;;5024376;28;20047;-90
2022/02/11 07:45:00;;;;;;;19.20;2.05;;;4.40;99.90;;;;;;5028156;28;20421;-88
2022/02/11 07:47:29;;;;;;;18.52;2.47;;;4.40;99.90;;;;;;5032487;28;20055;-91
2022/02/11 07:49:56;;;;;;;17.92;2.75;;;4.40;99.90;;;;;;5032330;28;20040;-87
2022/02/11 07:52:22;;;;;;;17.58;1.98;;;4.40;99.90;;;;;;5056954;28;20496;-88
2022/02/11 07:54:47;;;;;;;16.85;1.70;;;4.40;99.90;;;;;;5013633;28;20487;-89
2022/02/11 07:57:13;;;;;;;22.85;1.95;;;4.30;99.90;;;;;;5019957;28;20044;-87
2022/02/11 07:59:42;;;;;;;8.50;1.80;;;4.30;99.90;;;;;;5019705;28;20048;-88
2022/02/11 08:02:08;;;;;;;12.77;1.80;;;4.30;99.90;;;;;;5050586;28;20041;-87
2022/02/11 08:04:37;;;;;;;14.43;2.03;;;4.20;99.90;;;;;;5036349;28;20056;-86
2022/02/11 08:07:03;;;;;;;21.90;2.47;;;4.20;99.90;;;;;;5033356;28;20796;-87
2022/02/11 08:09:29;;;;;;;21.65;1.92;;;4.20;99.90;;;;;;5035465;28;20319;-88
2022/02/11 08:11:57;;;;;;;18.67;2.75;;;4.20;99.90;;;;;;5022300;28;20116;-85
2022/02/11 08:14:24;;;;;;;19.77;2.35;;;4.10;99.90;;;;;;5036493;28;20032;-88
2022/02/11 08:16:50;;;;;;;10.43;1.90;;;4.20;99.90;;;;;;5021709;28;20048;-86
2022/02/11 08:19:19;;;;;;;18.88;2.05;;;4.20;99.90;;;;;;5021505;28;20404;-87
2022/02/11 08:21:48;;;;;;;24.23;1.95;;;4.20;99.90;;;;;;5023425;28;20088;-88
2022/02/11 08:24:15;;;;;;;19.40;3.22;;;4.20;99.90;;;;;;5005715;28;20505;-86
2022/02/11 08:26:41;;;;;;;15.65;2.30;;;4.10;99.90;;;;;;5040282;28;20148;-90
2022/02/11 08:29:08;;;;;;;17.25;2.78;;;4.10;99.90;;;;;;5032429;28;20114;-87
2022/02/11 08:31:35;;;;;;;21.05;2.47;;;4.20;99.90;;;;;;5025772;28;20040;-89
2022/02/11 08:34:01;;;;;;;23.08;3.03;;;4.10;99.90;;;;;;5037096;28;20369;-88
2022/02/11 08:36:27;;;;;;;17.92;2.65;;;4.10;99.90;;;;;;5019403;28;20056;-86
2022/02/11 08:38:53;;;;;;;14.13;2.20;;;4.10;99.90;;;;;;5033631;28;20045;-88
2022/02/11 08:41:19;;;;;;;21.02;2.97;;;4.10;99.90;;;;;;5025909;28;20090;-89
2022/02/11 08:43:45;;;;;;;23.00;3.10;;;4.10;99.90;;;;;;5025411;28;20068;-86
2022/02/11 08:46:11;;;;;;;17.17;2.92;;;4.20;99.90;;;;;;5016645;28;20119;-90
2022/02/11 08:48:36;;;;;;;25.55;3.17;;;4.20;99.90;;;;;;5026696;28;20037;-88
2022/02/11 08:51:02;;;;;;;20.60;3.92;;;4.30;99.90;;;;;;5007616;28;20044;-86
2022/02/11 08:53:36;;;;;;;30.70;4.53;;;4.20;99.90;;;;;;5005466;28;20396;-86
2022/02/11 08:56:09;;;;;;;29.48;3.67;;;4.20;99.90;;;;;;5038726;28;20045;-89
2022/02/11 08:58:35;;;;;;;;;;;4.30;99.90;;;;;;5031178;28;20040;-86
2022/02/11 09:01:01;;;;;;;24.20;2.95;;;4.30;99.90;;;;;;5030127;28;19927;-87
2022/02/11 09:03:27;;;;;;;24.38;2.80;;;4.30;99.90;;;;;;5041945;28;20041;-87
2022/02/11 09:05:53;;;;;;;18.65;2.83;;;4.40;99.90;;;;;;5026386;28;20043;-88
2022/02/11 09:08:18;;;;;;;23.45;3.63;;;4.40;99.90;;;;;;5052963;28;20052;-86
2022/02/11 09:10:48;;;;;;;25.95;4.85;;;4.40;99.90;;;;;;5040787;28;20052;-89
2022/02/11 09:13:15;;;;;;;20.45;3.03;;;4.40;99.90;;;;;;5020691;28;20127;-87
2022/02/11 09:15:41;;;;;;;33.20;4.00;;;4.40;99.90;;;;;;5024368;28;20029;-87
2022/02/11 09:18:07;;;;;;;23.77;3.00;;;4.50;99.90;;;;;;5043346;28;20111;-89
2022/02/11 09:20:36;;;;;;;23.45;3.80;;;4.60;99.90;;;;;;5037388;28;20033;-88
2022/02/11 09:23:02;;;;;;;24.08;3.67;;;4.60;99.90;;;;;;5023861;28;20085;-88
2022/02/11 09:25:29;;;;;;;34.50;4.00;;;4.70;99.90;;;;;;5025080;28;20116;-90
2022/02/11 09:27:55;;;;;;;26.13;3.60;;;4.70;99.90;;;;;;5028051;28;20307;-88
2022/02/11 09:30:22;;;;;;;24.73;3.30;;;4.80;99.90;;;;;;5042842;28;20513;-88
2022/02/11 09:32:52;;;;;;;27.60;3.67;;;4.80;99.90;;;;;;5028436;28;20048;-89
2022/02/11 09:35:21;;;;;;;22.45;3.10;;;4.90;99.90;;;;;;5041655;23;20106;-87
2022/02/11 09:37:47;;;;;;;26.23;3.67;;;4.80;99.90;;;;;;4965562;28;20050;-88
2022/02/11 09:40:16;;;;;;;36.05;3.67;;;4.80;99.90;;;;;;4968046;28;20119;-88
2022/02/11 09:42:42;;;;;;;20.42;3.45;;;4.70;99.90;;;;;;4995729;28;20042;-89
2022/02/11 09:45:14;;;;;;;25.10;2.90;;;4.50;99.90;;;;;;5000170;28;20045;-90
2022/02/11 09:47:41;;;;;;;24.02;3.47;;;4.40;99.90;;;;;;4983897;28;20037;-88
2022/02/11 09:50:11;;;;;;;26.08;3.00;;;4.30;99.90;;;;;;4964433;28;20042;-91
2022/02/11 09:52:44;;;;;;;34.85;3.80;;;4.30;99.90;;;;;;4983622;28;20184;-91
2022/02/11 09:57:56;;;;;;;23.70;2.95;;;4.40;99.90;;;;;;4994572;28;20045;-88
2022/02/11 10:00:24;;;;;;;32.88;3.92;;;4.30;99.90;;;;;;4984012;28;20394;-87
2022/02/11 10:02:50;;;;;;;23.00;3.17;;;4.50;99.90;;;;;;4993394;28;20041;-88
2022/02/11 10:05:24;;;;;;;32.45;4.30;;;4.60;99.90;;;;;;4989935;28;20035;-87
2022/02/11 10:07:51;;;;;;;28.23;3.83;;;4.70;99.90;;;;;;4996509;28;20042;-90
2022/02/11 10:10:38;;;;;;;21.95;3.33;;;4.80;99.90;;;;;;4984658;28;20056;-88
2022/02/11 10:13:12;;;;;;;29.10;3.67;;;4.80;99.90;;;;;;4983673;28;20350;-89
2022/02/11 10:15:43;;;;;;;30.60;3.65;;;4.90;99.90;;;;;;4982900;28;20397;-88
2022/02/11 10:18:12;;;;;;;28.23;3.70;;;5.00;99.90;;;;;;4983175;28;20041;-88
2022/02/11 10:20:47;;;;;;;25.52;3.47;;;5.10;99.90;;;;;;4974142;28;20188;-88
2022/02/11 10:23:45;;;;;;;32.55;3.85;;;5.20;99.90;;;;;;4983228;28;20052;-87
2022/02/11 10:26:15;;;;;;;28.15;3.92;;;5.20;99.90;;;;;;4974887;28;20097;-87
2022/02/11 10:28:45;;;;;;;31.45;3.75;;;5.30;99.90;;;;;;4982720;28;20049;-88
2022/02/11 10:31:31;;;;;;;27.48;4.10;;;5.50;99.90;;;;;;4993621;28;20049;-90
2022/02/11 10:34:08;;;;;;;22.52;3.22;;;5.50;99.90;;;;;;4979953;28;20735;-91
2022/02/11 10:36:46;;;;;;;30.08;4.00;;;5.60;99.90;;;;;;4982546;28;20049;-91
2022/02/11 10:39:14;;;;;;;32.15;3.38;;;5.50;99.90;;;;;;4973183;28;20073;-90
2022/02/11 10:41:49;;;;;;;23.35;3.00;;;5.30;99.90;;;;;;4975764;28;20513;-88
2022/02/11 10:44:17;;;;;;;29.73;3.75;;;5.20;99.90;;;;;;4975195;28;20049;-87
2022/02/11 10:46:45;;;;;;;33.92;4.13;;;5.10;99.90;;;;;;4989440;28;20046;-88
2022/02/11 10:49:13;;;;;;;19.40;2.83;;;5.00;99.90;;;;;;5009509;28;20053;-91
2022/02/11 10:51:44;;;;;;;16.92;2.75;;;4.80;99.90;;;;;;4978089;28;20057;-90
2022/02/11 10:54:24;;;;;;;24.60;3.40;;;4.60;99.90;;;;;;4977618;28;20033;-92
2022/02/11 10:56:52;;;;;;;15.63;2.17;;;4.40;99.90;;;;;;4977461;28;20808;-89
2022/02/11 10:59:35;;;;;;;22.10;2.95;;;4.30;99.90;;;;;;4996547;28;20230;-91
2022/02/11 11:02:09;;;;;;;25.42;2.63;;;4.20;99.90;;;;;;4980466;28;20050;-88
2022/02/11 11:04:36;;;;;;;21.58;3.08;;;4.30;99.90;;;;;;4961419;28;20046;-91
2022/02/11 11:07:06;;;;;;;17.77;2.67;;;4.30;99.90;;;;;;4984407;28;20069;-87
2022/02/11 11:09:35;;;;;;;26.13;2.58;;;4.40;99.90;;;;;;4998503;28;20420;-88
2022/02/11 11:12:02;;;;;;;21.10;3.30;;;4.50;99.90;;;;;;4980705;28;20215;-89
2022/02/11 11:14:28;;;;;;;13.93;2.15;;;4.40;99.90;;;;;;4987421;28;20124;-88
2022/02/11 11:16:58;;;;;;;22.25;2.78;;;4.50;99.90;;;;;;4951382;28;20042;-90
2022/02/11 11:19:25;;;;;;;19.52;2.63;;;4.50;99.90;;;;;;4982111;28;20037;-90
2022/02/11 11:22:15;;;;;;;24.58;3.22;;;4.50;99.90;;;;;;5016469;28;20042;-88
2022/02/11 11:24:45;;;;;;;18.83;2.90;;;4.50;99.90;;;;;;4974766;28;20046;-87
2022/02/11 11:27:11;;;;;;;22.85;3.22;;;4.60;99.90;;;;;;4989830;28;20048;-87
2022/02/11 11:29:36;;;;;;;21.95;2.97;;;4.60;99.90;;;;;;4974419;28;20043;-85
2022/02/11 11:32:20;;;;;;;31.50;3.65;;;4.60;99.90;;;;;;4942936;28;20042;-89
2022/02/11 11:34:46;;;;;;;26.00;3.05;;;4.70;99.90;;;;;;4951818;28;20052;-88
2022/02/11 11:37:12;;;;;;;21.48;3.17;;;4.70;99.90;;;;;;4962696;28;20045;-88
2022/02/11 11:39:40;;;;;;;28.48;4.60;;;4.80;99.90;;;;;;5006289;28;20108;-86
2022/02/11 11:42:12;;;;;;;19.98;2.63;;;4.90;99.90;;;;;;4966507;28;20037;-89
2022/02/11 11:44:45;;;;;;;22.85;2.80;;;4.90;99.90;;;;;;4976552;28;20060;-89
2022/02/11 11:47:33;;;;;;;23.63;3.22;;;4.90;99.90;;;;;;4975481;28;20096;-90
2022/02/11 11:50:00;;;;;;;22.35;2.75;;;5.00;99.90;;;;;;4980868;28;20065;-86
2022/02/11 11:52:43;;;;;;;15.15;2.20;;;5.00;99.90;;;;;;5000205;28;20065;-88
2022/02/11 11:55:21;;;;;;;25.40;2.47;;;5.00;99.90;;;;;;4979892;28;20034;-87
2022/02/11 11:57:47;;;;;;;14.43;2.22;;;5.10;99.90;;;;;;5012620;28;20817;-87
2022/02/11 12:00:31;;;;;;;24.50;2.50;;;5.10;99.90;;;;;;4979079;28;20053;-86
2022/02/11 12:02:57;;;;;;;16.55;2.15;;;5.10;99.90;;;;;;4966511;28;20475;-90
2022/02/11 12:05:45;;;;;;;18.77;2.63;;;5.20;99.90;;;;;;4960344;28;20133;-85
2022/02/11 12:08:11;;;;;;;18.52;2.35;;;5.30;99.90;;;;;;4982415;28;20076;-86
2022/02/11 12:10:51;;;;;;;19.23;2.38;;;5.50;99.90;;;;;;5107492;27;20399;-86
2022/02/11 12:13:18;;;;;;;12.55;2.65;;;5.70;99.90;;;;;;5074123;28;20491;-91
2022/02/11 12:15:44;;;;;;;16.35;2.42;;;5.90;99.90;;;;;;5105173;27;20032;-88
2022/02/11 12:18:10;;;;;;;24.30;2.58;;;5.80;99.90;;;;;;5091228;28;20031;-88
2022/02/11 12:20:38;;;;;;;15.60;2.15;;;5.80;99.90;;;;;;5091246;27;20395;-87
2022/02/11 12:28:35;;;;;;;25.67;3.15;;;5.60;99.90;;;;;;5101194;27;20139;-87
2022/02/11 12:31:06;;;;;;;17.30;2.28;;;5.50;99.90;;;;;;5088791;28;20107;-89
2022/02/11 12:33:33;;;;;;;14.73;2.08;;;5.40;99.90;;;;;;5076694;28;20027;-90
2022/02/11 12:36:09;;;;;;;15.82;2.00;;;5.30;99.90;;;;;;5073281;28;20082;-88
2022/02/11 12:38:36;;;;;;;19.63;3.10;;;5.20;99.90;;;;;;5088888;27;20069;-87
2022/02/11 12:41:02;;;;;;;19.55;2.67;;;5.10;99.90;;;;;;5089429;27;20050;-87
2022/02/11 12:43:29;;;;;;;16.75;2.63;;;5.00;99.90;;;;;;5066959;27;20036;-89
2022/02/11 12:45:56;;;;;;;20.85;2.60;;;5.00;99.90;;;;;;5071504;28;20035;-87
2022/02/11 12:48:30;;;;;;;19.27;2.47;;;5.00;99.90;;;;;;5082636;28;20040;-87
2022/02/11 12:50:56;;;;;;;22.10;3.40;;;5.10;99.90;;;;;;5084617;28;20558;-88
2022/02/11 12:53:23;;;;;;;18.45;2.28;;;5.20;99.90;;;;;;5055462;28;20040;-88
2022/02/11 12:55:52;;;;;;;12.48;2.38;;;5.30;99.90;;;;;;5087165;27;20336;-90
2022/02/11 12:58:19;;;;;;;19.85;2.50;;;5.30;99.90;;;;;;5090868;28;20063;-87
2022/02/11 13:00:47;;;;;;;16.70;2.40;;;5.30;99.90;;;;;;5073835;27;20278;-88
2022/02/11 13:03:15;;;;;;;18.55;2.45;;;5.40;99.90;;;;;;5089547;28;20039;-87
2022/02/11 13:05:52;;;;;;;18.45;2.50;;;5.50;99.90;;;;;;5089543;27;20043;-87
2022/02/11 13:08:28;;;;;;;15.98;2.65;;;5.50;99.90;;;;;;5092242;28;20043;-88
2022/02/11 13:10:56;;;;;;;17.02;1.83;;;5.50;99.90;;;;;;5087381;28;20044;-86
2022/02/11 13:13:22;;;;;;;20.85;2.85;;;5.40;99.90;;;;;;5072296;28;20447;-86
2022/02/11 13:15:48;;;;;;;12.50;2.03;;;5.50;99.90;;;;;;5107786;27;20038;-87
2022/02/11 13:18:17;;;;;;;18.63;2.28;;;5.50;99.90;;;;;;5079317;28;20276;-87
2022/02/11 13:21:04;;;;;;;22.00;2.25;;;5.50;99.90;;;;;;5086399;28;20104;-86
2022/02/11 13:23:31;;;;;;;14.70;1.92;;;5.60;99.90;;;;;;5095305;27;20040;-88
2022/02/11 13:25:58;;;;;;;17.75;2.10;;;5.60;99.90;;;;;;5068877;28;20142;-88
2022/02/11 13:28:29;;;;;;;16.17;2.13;;;5.80;99.90;;;;;;5090208;28;20118;-88
2022/02/11 13:31:02;;;;;;;14.45;2.25;;;5.90;99.90;;;;;;5065981;28;20290;-86
2022/02/11 13:33:31;;;;;;;10.02;2.00;;;6.10;99.90;;;;;;5071825;28;20240;-85
2022/02/11 13:35:59;;;;;;;10.45;1.60;;;6.10;99.90;;;;;;5071883;28;20758;-87
2022/02/11 13:38:30;;;;;;;13.55;1.95;;;6.20;99.90;;;;;;5070259;28;20615;-89
2022/02/11 13:40:59;;;;;;;10.77;1.70;;;6.20;99.90;;;;;;5089592;28;20441;-87
2022/02/11 13:43:26;;;;;;;11.73;2.05;;;6.10;99.90;;;;;;5070103;28;20167;-88
2022/02/11 13:46:05;;;;;;;10.50;1.60;;;6.10;99.90;;;;;;5077404;27;20725;-88
2022/02/11 13:48:31;;;;;;;11.10;1.67;;;6.10;99.90;;;;;;5075183;28;21648;-86
2022/02/11 13:51:12;;;;;;;15.65;2.22;;;6.10;99.90;;;;;;5060080;27;20435;-87
2022/02/11 13:53:41;;;;;;;10.05;1.55;;;6.40;99.90;;;;;;5071751;28;20381;-86
2022/02/11 13:56:13;;;;;;;13.68;1.63;;;6.70;99.90;;;;;;5079793;28;20035;-87
2022/02/11 13:58:59;;;;;;;10.97;1.60;;;6.70;99.90;;;;;;5093948;27;20499;-86
2022/02/11 14:01:30;;;;;;;11.93;1.60;;;6.60;99.90;;;;;;5063989;28;21350;-89
2022/02/11 14:04:08;;;;;;;11.35;1.90;;;6.50;99.90;;;;;;5092058;28;20166;-90
2022/02/11 14:06:38;;;;;;;14.88;1.48;;;6.50;99.90;;;;;;5070850;28;20501;-89
2022/02/11 14:09:10;;;;;;;15.15;1.60;;;6.80;99.90;;;;;;5066224;28;20064;-88
2022/02/11 14:11:40;;;;;;;15.60;2.35;;;6.90;99.90;;;;;;5068359;28;20521;-88
2022/02/11 14:14:12;;;;;;;16.48;1.70;;;6.90;99.90;;;;;;5076273;28;20123;-87
2022/02/11 14:16:38;;;;;;;14.65;1.63;;;6.80;99.90;;;;;;5079428;28;20043;-90
2022/02/11 14:19:03;;;;;;;17.67;2.03;;;6.70;99.90;;;;;;5054987;28;20055;-90
2022/02/11 14:21:29;;;;;;;10.60;1.70;;;6.50;99.90;;;;;;5053473;28;20032;-87
2022/02/11 14:23:55;;;;;;;9.43;1.30;;;6.40;99.90;;;;;;5064601;28;20058;-88
2022/02/11 14:26:21;;;;;;;14.45;1.65;;;6.20;99.90;;;;;;5073843;28;20177;-87
2022/02/11 14:28:47;;;;;;;14.98;1.88;;;6.20;99.90;;;;;;5054756;28;20293;-87
2022/02/11 14:31:12;;;;;;;9.07;1.88;;;6.20;99.90;;;;;;5060192;28;20031;-88
2022/02/11 14:33:38;;;;;;;18.45;1.65;;;6.10;99.90;;;;;;5062876;28;20035;-86
2022/02/11 14:36:04;;;;;;;11.70;1.45;;;6.10;99.90;;;;;;5063848;28;20433;-88
2022/02/11 14:38:30;;;;;;;12.15;1.63;;;6.10;99.90;;;;;;5075062;28;20484;-87
2022/02/11 14:43:41;;;;;;;14.25;1.50;;;6.40;99.90;;;;;;5078090;28;20112;-88
2022/02/11 14:46:07;;;;;;;13.20;1.70;;;6.60;99.90;;;;;;5059264;28;20530;-87
2022/02/11 14:48:33;;;;;;;8.10;1.42;;;6.60;99.90;;;;;;5067131;28;20117;-87
2022/02/11 14:50:59;;;;;;;14.10;2.10;;;6.60;99.90;;;;;;5058546;28;20047;-88
2022/02/11 14:53:25;;;;;;;21.92;2.08;;;6.50;99.90;;;;;;5076564;28;20039;-87
2022/02/11 14:55:51;;;;;;;12.18;1.50;;;6.40;99.90;;;;;;5069979;28;20450;-87
2022/02/11 14:58:17;;;;;;;14.82;1.92;;;6.30;99.90;;;;;;5072595;28;20546;-85
2022/02/11 15:00:42;;;;;;;15.60;1.67;;;6.20;99.90;;;;;;5066241;28;20118;-88
2022/02/11 15:03:09;;;;;;;18.20;2.85;;;6.10;99.90;;;;;;5079818;28;20346;-86
2022/02/11 15:05:35;;;;;;;14.30;1.80;;;6.00;99.90;;;;;;5056916;28;20197;-87
2022/02/11 15:08:00;;;;;;;17.48;2.30;;;6.00;99.90;;;;;;5061477;27;20067;-87
2022/02/11 15:10:26;;;;;;;13.15;1.98;;;5.90;99.90;;;;;;5051967;28;20791;-87
2022/02/11 15:12:52;;;;;;;20.65;1.70;;;5.80;99.90;;;;;;5044206;28;20089;-88
2022/02/11 15:15:18;;;;;;;16.23;1.70;;;5.70;99.90;;;;;;5072878;28;20312;-87
2022/02/11 15:17:45;;;;;;;13.25;1.60;;;5.70;99.90;;;;;;5052932;28;20069;-87
2022/02/11 15:20:11;;;;;;;16.77;2.20;;;5.60;99.90;;;;;;5072793;28;20041;-87
2022/02/11 15:22:37;;;;;;;18.00;1.92;;;5.70;99.90;;;;;;5053971;28;20414;-88
2022/02/11 15:25:03;;;;;;;15.98;1.58;;;5.70;99.90;;;;;;5076824;28;20036;-86
2022/02/11 15:27:29;;;;;;;13.90;2.20;;;5.90;99.90;;;;;;5063373;27;20032;-87
2022/02/11 15:30:00;;;;;;;14.55;2.00;;;6.00;99.90;;;;;;5047209;28;20050;-88
2022/02/11 15:32:27;;;;;;;16.50;1.52;;;6.00;99.90;;;;;;5071513;28;20289;-89
2022/02/11 15:34:52;;;;;;;18.65;2.55;;;6.00;99.90;;;;;;5065547;28;20032;-88
2022/02/11 15:37:18;;;;;;;16.33;1.85;;;5.90;99.90;;;;;;5072166;28;20040;-90
2022/02/11 15:39:44;;;;;;;9.02;1.60;;;5.90;99.90;;;;;;5063514;28;20066;-88
2022/02/11 15:42:10;;;;;;;11.50;1.75;;;5.80;99.90;;;;;;5068405;28;20039;-86
2022/02/11 15:44:36;;;;;;;17.25;2.17;;;5.70;99.90;;;;;;5077196;28;20050;-87
2022/02/11 15:47:02;;;;;;;20.05;1.98;;;5.70;99.90;;;;;;5087668;28;20039;-89
2022/02/11 15:49:28;;;;;;;12.05;2.10;;;5.60;99.90;;;;;;5066717;28;20051;-86
2022/02/11 15:51:54;;;;;;;15.80;1.90;;;5.50;99.90;;;;;;5060065;28;20442;-87
2022/02/11 15:54:19;;;;;;;15.15;2.10;;;5.50;99.90;;;;;;5059020;28;20130;-88
2022/02/11 15:56:45;;;;;;;14.98;2.67;;;5.40;99.90;;;;;;5047635;28;20047;-87
2022/02/11 15:59:11;;;;;;;17.75;1.80;;;5.30;99.90;;;;;;5043563;28;20645;-87
2022/02/11 16:01:37;;;;;;;12.85;1.50;;;5.30;99.90;;;;;;5035791;28;20044;-87
2022/02/11 16:04:07;;;;;;;17.00;2.10;;;5.10;99.90;;;;;;5061874;28;20075;-88
2022/02/11 16:06:33;;;;;;;13.35;2.33;;;5.10;99.90;;;;;;5065467;28;20032;-87
2022/02/11 16:08:59;;;;;;;12.07;1.55;;;4.90;99.90;;;;;;5075231;28;20127;-88
2022/02/11 16:11:25;;;;;;;14.45;2.08;;;4.80;99.90;;;;;;5075563;28;20094;-88
2022/02/11 16:13:51;;;;;;;16.05;2.03;;;4.70;99.90;;;;;;5055620;28;20032;-87
2022/02/11 16:16:17;;;;;;;15.38;1.85;;;4.60;99.90;;;;;;5052726;28;20555;-88
2022/02/11 16:18:43;;;;;;;18.52;2.22;;;4.50;99.90;;;;;;5092508;28;20399;-88
2022/02/11 16:21:09;;;;;;;13.77;2.10;;;4.50;99.90;;;;;;5055974;28;20032;-88
2022/02/11 16:23:40;;;;;;;14.55;2.40;;;4.40;99.90;;;;;;5075548;28;20047;-88
2022/02/11 16:26:06;;;;;;;19.30;2.35;;;4.30;99.90;;;;;;5060388;28;20123;-88
2022/02/11 16:28:33;;;;;;;16.13;2.00;;;4.20;99.90;;;;;;5063063;28;20032;-87
2022/02/11 16:31:17;;;;;;;19.08;2.15;;;4.20;99.90;;;;;;5074439;28;20032;-87
2022/02/11 16:33:43;;;;;;;19.35;1.50;;;4.10;99.90;;;;;;5069163;28;20424;-88
2022/02/11 16:36:09;;;;;;;15.38;2.08;;;4.00;99.90;;;;;;5057091;28;20049;-87
2022/02/11 16:38:42;;;;;;;11.02;1.30;;;4.00;99.90;;;;;;5069323;28;20031;-87
2022/02/11 16:41:09;;;;;;;13.82;1.42;;;4.00;99.90;;;;;;5054194;28;20115;-88
2022/02/11 16:43:35;;;;;;;15.55;2.15;;;3.90;99.90;;;;;;5066467;28;20097;-88
2022/02/11 16:46:00;;;;;;;10.43;1.65;;;3.90;99.90;;;;;;5042423;28;20043;-88
2022/02/11 16:48:26;;;;;;;8.65;1.60;;;4.00;99.90;;;;;;5058070;28;20042;-88